Aviation Digital Data Service (ADDS)

Output produced by TAFs form (1010 UTC 21 November 2017)
found at http://aviationweather.gov/adds/tafs/
 
KHOB 210520Z 2106/2206 27011KT P6SM BKN250 
     FM211100 31014G21KT P6SM BKN250